Terminal Aerodrome Forecast
Issued by NWS

Home | Current Version | Previous Version | Text Only | Print | Product List | Glossary On
Versions: 1 2 3 4 5 6 7 8 9 10 11 12 13
000
FTUS42 KMLB 241120
TAFFPR
TAF
KFPR 241120Z 2412/2512 12004KT P6SM SCT250
     FM241700 11010KT P6SM TS SCT040CB
     FM242100 11012KT P6SM VCSH SCT050
     FM250000 13004KT P6SM SCT250=

USA.gov is the U.S. government's official web portal to all federal, state and local government web resources and services.